createdAt,value
2022-12-03T00:01:26.920Z,10.23
2022-12-03T00:03:58.512Z,10.07
2022-12-03T00:06:34.353Z,10.13
2022-12-03T00:09:03.629Z,9.75
2022-12-03T00:11:39.171Z,10.90
2022-12-03T00:14:07.989Z,9.50
2022-12-03T00:16:39.619Z,10.93
2022-12-03T00:19:11.131Z,10.05
2022-12-03T00:21:45.697Z,10.40
2022-12-03T00:24:14.581Z,10.50
2022-12-03T00:26:43.274Z,10.15
2022-12-03T00:29:18.438Z,10.05
2022-12-03T00:32:43.314Z,10.68
2022-12-03T00:35:17.944Z,10.52
2022-12-03T00:37:46.731Z,10.87
2022-12-03T00:40:15.756Z,9.88
2022-12-03T00:42:50.352Z,11.43
2022-12-03T00:45:26.827Z,10.48
2022-12-03T00:47:55.290Z,10.02
2022-12-03T00:50:25.028Z,10.63
2022-12-03T00:52:53.633Z,9.73
2022-12-03T00:55:22.285Z,10.48
2022-12-03T00:57:50.825Z,10.18
2022-12-03T01:00:24.678Z,11.00
2022-12-03T01:02:54.198Z,11.00
2022-12-03T01:05:24.902Z,9.70
2022-12-03T01:07:53.971Z,9.25
2022-12-03T01:10:22.681Z,10.10
2022-12-03T01:12:51.281Z,12.13
2022-12-03T01:15:20.062Z,10.73
2022-12-03T01:17:50.025Z,10.68
2022-12-03T01:20:20.357Z,10.35
2022-12-03T01:22:57.388Z,10.90
2022-12-03T01:25:27.710Z,11.10
2022-12-03T01:28:20.960Z,11.57
2022-12-03T01:31:13.575Z,11.68
2022-12-03T01:33:44.157Z,12.32
2022-12-03T01:36:12.833Z,11.55
2022-12-03T01:38:42.635Z,11.43
2022-12-03T01:41:13.005Z,10.80
2022-12-03T01:43:41.672Z,10.55
2022-12-03T01:46:11.809Z,11.73
2022-12-03T01:48:40.566Z,12.00
2022-12-03T01:51:10.287Z,11.07
2022-12-03T01:53:39.269Z,12.10
2022-12-03T01:56:15.648Z,11.00
2022-12-03T01:58:45.139Z,11.52
2022-12-03T02:01:20.058Z,11.50
2022-12-03T02:03:48.901Z,11.57
2022-12-03T02:06:24.913Z,12.27
2022-12-03T02:08:59.675Z,12.07
2022-12-03T02:11:32.015Z,12.68
2022-12-03T02:14:05.147Z,13.23
2022-12-03T02:16:33.670Z,12.77
2022-12-03T02:19:02.274Z,11.67
2022-12-03T02:21:38.264Z,12.15
2022-12-03T02:24:13.377Z,12.40
2022-12-03T02:26:43.416Z,12.32
2022-12-03T02:29:12.206Z,12.70
2022-12-03T02:31:40.892Z,12.27
2022-12-03T02:34:11.690Z,12.93
2022-12-03T02:36:40.999Z,12.52
2022-12-03T02:39:10.032Z,13.05
2022-12-03T02:41:56.406Z,12.45
2022-12-03T02:44:28.486Z,11.63
2022-12-03T02:46:57.104Z,14.73
2022-12-03T02:49:25.826Z,12.50
2022-12-03T02:51:56.145Z,13.20
2022-12-03T02:54:26.672Z,12.38
2022-12-03T02:56:55.262Z,12.97
2022-12-03T02:59:24.772Z,13.60
2022-12-03T03:01:54.693Z,13.45
2022-12-03T03:04:25.054Z,14.43
2022-12-03T03:07:38.600Z,14.20
2022-12-03T03:10:12.192Z,12.37
2022-12-03T03:12:40.931Z,12.40
2022-12-03T03:15:15.263Z,13.20
2022-12-03T03:17:45.090Z,12.20
2022-12-03T03:20:15.111Z,11.38
2022-12-03T03:22:44.733Z,13.47
2022-12-03T03:25:18.862Z,12.80
2022-12-03T03:27:47.493Z,13.38
2022-12-03T03:30:16.991Z,13.00
2022-12-03T03:32:46.604Z,13.45
2022-12-03T03:35:18.061Z,12.90
2022-12-03T03:37:49.913Z,12.13
2022-12-03T03:40:18.447Z,12.77
2022-12-03T03:42:47.490Z,11.65
2022-12-03T03:45:24.002Z,12.88
2022-12-03T03:48:01.646Z,12.77
2022-12-03T03:50:31.763Z,13.00
2022-12-03T03:53:01.350Z,12.57
2022-12-03T03:55:33.111Z,12.98
2022-12-03T03:58:04.695Z,11.95
2022-12-03T04:00:36.066Z,12.07
2022-12-03T04:03:07.034Z,11.63
2022-12-03T04:05:38.239Z,11.20
2022-12-03T04:08:07.023Z,11.85
2022-12-03T04:10:53.014Z,12.57
2022-12-03T04:13:21.514Z,11.70
2022-12-03T04:15:50.076Z,11.75
2022-12-03T04:18:37.140Z,12.13
2022-12-03T04:21:19.590Z,11.40
2022-12-03T04:23:48.079Z,11.20
2022-12-03T04:26:33.891Z,11.87
2022-12-03T04:29:02.336Z,11.15
2022-12-03T04:31:48.701Z,11.48
2022-12-03T04:34:35.750Z,10.52
2022-12-03T04:37:04.551Z,9.93
2022-12-03T04:39:32.785Z,10.07
2022-12-03T04:42:01.406Z,10.63
2022-12-03T04:44:36.989Z,10.50
2022-12-03T04:47:08.117Z,11.02
2022-12-03T04:49:39.901Z,10.60
2022-12-03T04:52:09.437Z,9.77
2022-12-03T04:54:38.277Z,11.35
2022-12-03T04:57:06.987Z,10.48
2022-12-03T04:59:35.974Z,10.70
2022-12-03T05:02:04.659Z,10.25
2022-12-03T05:04:34.577Z,10.43
2022-12-03T05:07:04.181Z,10.60
2022-12-03T05:09:34.209Z,12.52
2022-12-03T05:12:03.886Z,11.82
2022-12-03T05:14:32.455Z,12.27
2022-12-03T05:17:01.053Z,11.77
2022-12-03T05:19:43.473Z,13.43
2022-12-03T05:22:12.978Z,10.98
2022-12-03T05:24:41.568Z,9.02
2022-12-03T05:27:10.454Z,9.90
2022-12-03T05:29:38.985Z,10.23
2022-12-03T05:32:07.532Z,8.98
2022-12-03T05:34:35.977Z,9.27
2022-12-03T05:37:04.733Z,9.20
2022-12-03T05:39:38.336Z,9.98
2022-12-03T05:42:24.791Z,9.50
2022-12-03T05:44:53.519Z,9.35
2022-12-03T05:47:22.101Z,9.30
2022-12-03T05:49:50.544Z,9.68
2022-12-03T05:52:19.028Z,9.25
2022-12-03T05:54:48.653Z,9.90
2022-12-03T05:57:17.179Z,10.07
2022-12-03T05:59:45.768Z,9.88
2022-12-03T06:02:15.076Z,9.98
2022-12-03T06:04:43.689Z,9.40
2022-12-03T06:07:14.199Z,9.37
2022-12-03T06:09:43.108Z,9.88
2022-12-03T06:12:12.722Z,9.27
2022-12-03T06:14:41.256Z,9.07
2022-12-03T06:17:09.721Z,8.73
2022-12-03T06:19:38.242Z,8.53
2022-12-03T06:22:06.708Z,9.68
2022-12-03T06:24:35.451Z,8.00
2022-12-03T06:27:05.351Z,8.05
2022-12-03T06:29:35.311Z,8.85
2022-12-03T06:32:06.278Z,8.27
2022-12-03T06:34:34.848Z,8.27
2022-12-03T06:37:03.388Z,8.43
2022-12-03T06:39:31.797Z,9.45
2022-12-03T06:42:03.286Z,8.60
2022-12-03T06:44:31.653Z,8.90
2022-12-03T06:47:01.188Z,8.70
2022-12-03T06:49:29.620Z,9.55
2022-12-03T06:51:58.115Z,9.52
2022-12-03T06:54:26.532Z,9.77
2022-12-03T06:56:55.017Z,9.93
2022-12-03T06:59:23.509Z,8.70
2022-12-03T07:01:55.022Z,11.02
2022-12-03T07:04:24.555Z,8.98
2022-12-03T07:06:53.355Z,9.98
2022-12-03T07:09:21.964Z,9.67
2022-12-03T07:11:50.392Z,8.85
2022-12-03T07:14:18.505Z,8.48
2022-12-03T07:16:47.583Z,7.70
2022-12-03T07:19:16.071Z,7.28
2022-12-03T07:21:48.096Z,7.37
2022-12-03T07:24:16.590Z,7.47
2022-12-03T07:26:45.101Z,7.53
2022-12-03T07:29:14.186Z,7.85
2022-12-03T07:31:44.810Z,8.68
2022-12-03T07:34:15.044Z,9.37
2022-12-03T07:36:43.592Z,8.85
2022-12-03T07:39:13.414Z,8.30
2022-12-03T07:41:41.924Z,7.82
2022-12-03T07:44:14.185Z,8.30
2022-12-03T07:46:43.164Z,7.43
2022-12-03T07:49:12.363Z,7.80
2022-12-03T07:51:41.092Z,7.05
2022-12-03T07:54:09.562Z,7.45
2022-12-03T07:56:39.275Z,7.53
2022-12-03T07:59:07.844Z,8.07
2022-12-03T08:01:36.121Z,8.02
2022-12-03T08:04:04.832Z,7.88
2022-12-03T08:06:33.311Z,6.70
2022-12-03T08:09:01.786Z,8.40
2022-12-03T08:11:30.367Z,8.03
2022-12-03T08:14:00.488Z,8.35
2022-12-03T08:16:28.959Z,8.13
2022-12-03T08:18:57.976Z,8.55
2022-12-03T08:21:26.545Z,8.98
2022-12-03T08:23:55.168Z,8.40
2022-12-03T08:26:25.269Z,7.50
2022-12-03T08:28:54.039Z,8.32
2022-12-03T08:31:32.470Z,9.00
2022-12-03T08:34:17.847Z,8.93
2022-12-03T08:36:52.208Z,8.87
2022-12-03T08:39:33.176Z,9.48
2022-12-03T08:42:27.965Z,9.10
2022-12-03T08:44:56.627Z,8.20
2022-12-03T08:47:26.541Z,9.23
2022-12-03T08:49:57.930Z,8.87
2022-12-03T08:52:32.700Z,8.48
2022-12-03T08:56:06.652Z,8.45
2022-12-03T08:58:41.261Z,8.15
2022-12-03T09:01:42.838Z,8.93
2022-12-03T09:04:29.699Z,7.70
2022-12-03T09:06:58.809Z,7.45
2022-12-03T09:09:27.505Z,6.55
2022-12-03T09:11:56.059Z,6.30
2022-12-03T09:14:24.633Z,6.57
2022-12-03T09:16:56.097Z,6.20
2022-12-03T09:19:27.499Z,6.57
2022-12-03T09:21:56.360Z,6.07
2022-12-03T09:24:25.005Z,7.10
2022-12-03T09:26:53.936Z,6.15
2022-12-03T09:29:22.454Z,6.57
2022-12-03T09:31:51.145Z,6.90
2022-12-03T09:34:19.746Z,6.53
2022-12-03T09:36:49.314Z,7.03
2022-12-03T09:39:17.985Z,7.20
2022-12-03T09:41:46.671Z,7.13
2022-12-03T09:44:17.803Z,7.22
2022-12-03T09:46:47.530Z,6.97
2022-12-03T09:49:18.801Z,7.13
2022-12-03T09:51:49.002Z,6.70
2022-12-03T09:54:24.141Z,8.57
2022-12-03T09:56:53.763Z,7.75
2022-12-03T09:59:22.632Z,8.05
2022-12-03T10:01:51.475Z,8.43
2022-12-03T10:04:20.841Z,8.38
2022-12-03T10:06:53.835Z,8.27
2022-12-03T10:09:25.701Z,8.60
2022-12-03T10:12:26.034Z,9.43
2022-12-03T10:14:56.325Z,9.65
2022-12-03T10:17:29.535Z,9.57
2022-12-03T10:19:58.213Z,9.30
2022-12-03T10:22:28.040Z,9.85
2022-12-03T10:25:10.531Z,9.20
2022-12-03T10:27:42.913Z,8.63
2022-12-03T10:30:17.518Z,9.35
2022-12-03T10:32:47.870Z,10.33
2022-12-03T10:35:18.496Z,8.63
2022-12-03T10:38:19.823Z,9.63
2022-12-03T10:40:50.764Z,9.85
2022-12-03T10:43:24.105Z,9.43
2022-12-03T10:49:12.510Z,9.13
2022-12-03T10:51:42.860Z,9.88
2022-12-03T10:54:26.808Z,9.60
2022-12-03T10:56:55.403Z,9.82
2022-12-03T10:59:28.960Z,9.43
2022-12-03T11:01:57.899Z,9.30
2022-12-03T11:04:34.747Z,9.95
2022-12-03T11:07:17.828Z,9.30
2022-12-03T11:09:49.865Z,9.93
2022-12-03T11:12:21.951Z,10.60
2022-12-03T11:15:08.248Z,10.77
2022-12-03T11:17:46.841Z,9.73
2022-12-03T11:20:48.476Z,10.07
2022-12-03T11:23:17.059Z,10.55
2022-12-03T11:25:51.817Z,10.00
2022-12-03T11:29:01.556Z,11.18
2022-12-03T11:31:40.753Z,11.77
2022-12-03T11:34:47.780Z,10.98
2022-12-03T11:37:29.522Z,10.07
2022-12-03T11:40:27.090Z,9.50
2022-12-03T11:42:59.210Z,9.27
2022-12-03T11:45:36.371Z,9.38
2022-12-03T11:48:17.035Z,11.07
2022-12-03T11:50:54.455Z,11.13
2022-12-03T11:53:27.665Z,10.83
2022-12-03T11:56:08.911Z,9.40
2022-12-03T11:58:40.961Z,11.60
2022-12-03T12:01:10.296Z,12.30
2022-12-03T12:03:55.430Z,11.63
2022-12-03T12:06:24.199Z,10.97
2022-12-03T12:09:04.025Z,11.38
2022-12-03T12:11:34.330Z,10.57
2022-12-03T12:14:06.835Z,11.25
2022-12-03T12:16:50.607Z,11.50
2022-12-03T12:19:39.313Z,11.37
2022-12-03T12:22:30.085Z,12.38
2022-12-03T12:24:59.881Z,12.52
2022-12-03T12:27:34.405Z,11.65
2022-12-03T12:30:09.407Z,10.35
2022-12-03T12:32:50.117Z,12.00
2022-12-03T12:35:23.291Z,11.10
2022-12-03T12:38:00.168Z,11.20
2022-12-03T12:40:32.040Z,9.35
2022-12-03T12:43:09.956Z,10.95
2022-12-03T12:45:43.841Z,9.37
2022-12-03T12:48:20.552Z,10.82
2022-12-03T12:50:51.907Z,11.02
2022-12-03T12:53:24.918Z,10.48
2022-12-03T12:55:57.587Z,10.77
2022-12-03T12:58:27.029Z,10.47
2022-12-03T13:00:59.712Z,10.63
2022-12-03T13:03:30.956Z,10.95
2022-12-03T13:05:59.644Z,10.68
2022-12-03T13:08:31.124Z,10.75
2022-12-03T13:11:01.453Z,9.97
2022-12-03T13:13:44.280Z,11.88
2022-12-03T13:16:20.656Z,11.10
2022-12-03T13:18:50.955Z,9.35
2022-12-03T13:21:26.324Z,11.40
2022-12-03T13:23:57.696Z,9.93
2022-12-03T13:26:36.454Z,10.18
2022-12-03T13:29:15.733Z,9.38
2022-12-03T13:31:55.743Z,8.90
2022-12-03T13:34:42.922Z,9.77
2022-12-03T13:37:20.982Z,8.80
2022-12-03T13:39:50.946Z,9.52
2022-12-03T13:42:42.276Z,9.18
2022-12-03T13:45:33.001Z,10.35
2022-12-03T13:48:04.785Z,8.77
2022-12-03T13:50:39.787Z,9.73
2022-12-03T13:53:20.069Z,10.07
2022-12-03T13:55:52.277Z,9.85
2022-12-03T13:58:20.855Z,9.93
2022-12-03T14:00:50.021Z,10.20
2022-12-03T14:03:19.964Z,9.23
2022-12-03T14:05:50.936Z,10.35
2022-12-03T14:08:19.936Z,9.65
2022-12-03T14:10:48.794Z,9.85
2022-12-03T14:13:16.728Z,10.23
2022-12-03T14:15:45.411Z,9.70
2022-12-03T14:18:19.369Z,10.48
2022-12-03T14:20:48.348Z,10.38
2022-12-03T14:23:17.614Z,10.65
2022-12-03T14:25:46.309Z,10.93
2022-12-03T14:28:14.873Z,10.90
2022-12-03T14:30:43.364Z,10.50
2022-12-03T14:33:11.851Z,11.02
2022-12-03T14:35:41.519Z,10.10
2022-12-03T14:38:09.916Z,10.68
2022-12-03T14:40:38.654Z,10.57
2022-12-03T14:43:07.141Z,10.10
2022-12-03T14:45:35.688Z,10.90
2022-12-03T14:48:07.985Z,10.23
2022-12-03T14:50:36.510Z,11.60
2022-12-03T14:53:06.186Z,10.77
2022-12-03T14:55:34.901Z,11.98
2022-12-03T21:22:50.965Z,10.95
2022-12-03T21:25:24.178Z,9.90
2022-12-03T21:27:57.773Z,13.05
2022-12-03T21:30:42.415Z,11.43
2022-12-03T21:38:40.485Z,9.18
2022-12-03T21:49:26.616Z,11.30
2022-12-03T21:52:20.279Z,11.10
2022-12-03T21:55:03.311Z,16.75
2022-12-03T21:57:36.419Z,11.68
2022-12-03T22:00:13.354Z,10.10
2022-12-03T22:02:49.947Z,10.30
2022-12-03T22:05:23.461Z,10.20
2022-12-03T22:07:53.020Z,11.75
2022-12-03T22:10:25.812Z,11.77
2022-12-03T22:13:16.411Z,9.45
2022-12-03T22:15:51.358Z,9.83
2022-12-03T22:19:04.470Z,9.85
2022-12-03T22:22:37.383Z,10.38
2022-12-03T22:24:51.921Z,11.00
2022-12-03T22:27:23.002Z,12.57
2022-12-03T22:30:04.779Z,11.37
2022-12-03T22:32:34.902Z,9.82
2022-12-03T22:37:43.165Z,10.82
2022-12-03T22:40:18.124Z,10.35
2022-12-03T22:42:55.117Z,10.10
2022-12-03T22:45:27.961Z,9.52
2022-12-03T22:47:57.228Z,10.73
2022-12-03T22:50:26.905Z,9.63
2022-12-03T23:43:34.875Z,9.65
2022-12-03T23:46:19.490Z,9.82
2022-12-03T23:49:07.552Z,10.80
